Time;durP1;ratioP1;P1;durP2;ratioP2;P2;SDS_P1;SDS_P2;PMS_P1;PMS_P2;Temp;Humidity;BMP_temperature;BMP_pressure;BME280_temperature;BME280_humidity;BME280_pressure;Samples;Min_cycle;Max_cycle;Signal;HPM_P1;HPM_P2
2021/08/02 00:00:24;;;;;;;3.83;2.33;;;13.40;99.90;;;;;;5032793;28;20396;-37
2021/08/02 00:02:50;;;;;;;4.97;2.88;;;13.40;99.90;;;;;;5032699;28;20052;-37
2021/08/02 00:05:17;;;;;;;2.75;2.42;;;13.40;99.90;;;;;;5032897;28;20029;-38
2021/08/02 00:07:45;;;;;;;2.70;1.95;;;13.30;99.90;;;;;;5031757;28;20029;-37
2021/08/02 00:10:15;;;;;;;2.30;2.10;;;13.20;99.90;;;;;;5032271;28;20043;-37
2021/08/02 00:12:44;;;;;;;2.38;2.17;;;13.20;99.90;;;;;;5032690;28;20117;-38
2021/08/02 00:15:10;;;;;;;2.25;2.00;;;13.20;99.90;;;;;;5032306;28;20026;-37
2021/08/02 00:17:39;;;;;;;3.13;2.25;;;13.20;99.90;;;;;;5032547;28;20025;-36
2021/08/02 00:20:06;;;;;;;2.97;2.25;;;13.10;99.90;;;;;;5032302;28;20041;-37
2021/08/02 00:22:31;;;;;;;2.40;2.13;;;13.00;99.90;;;;;;5031264;28;20072;-37
2021/08/02 00:24:57;;;;;;;2.22;2.03;;;13.00;99.90;;;;;;5032230;28;20061;-37
2021/08/02 00:27:22;;;;;;;2.80;2.53;;;13.00;99.90;;;;;;5032386;28;20033;-37
2021/08/02 00:29:49;;;;;;;3.53;2.50;;;12.90;99.90;;;;;;5030866;28;20120;-37
2021/08/02 00:32:16;;;;;;;3.58;2.47;;;12.90;99.90;;;;;;5032310;28;20025;-37
2021/08/02 00:34:42;;;;;;;4.68;2.58;;;12.80;99.90;;;;;;5032209;28;20025;-36
2021/08/02 00:37:17;;;;;;;2.58;2.13;;;12.80;99.90;;;;;;5031099;28;20021;-37
2021/08/02 00:39:55;;;;;;;3.47;2.28;;;12.80;99.90;;;;;;5032125;28;20049;-37
2021/08/02 00:42:48;;;;;;;4.70;2.70;;;12.70;99.90;;;;;;5031963;28;20120;-37
2021/08/02 00:45:20;;;;;;;4.43;3.15;;;12.70;99.90;;;;;;5031658;28;20030;-36
2021/08/02 00:47:54;;;;;;;2.65;2.45;;;12.70;99.90;;;;;;5032015;28;20026;-37
2021/08/02 00:50:23;;;;;;;2.80;2.47;;;12.70;99.90;;;;;;5031778;28;20034;-37
2021/08/02 00:53:05;;;;;;;2.58;2.38;;;12.60;99.90;;;;;;5030946;28;20032;-37
2021/08/02 00:55:34;;;;;;;3.05;2.55;;;12.60;99.90;;;;;;5030477;28;20029;-37
2021/08/02 00:58:02;;;;;;;4.53;2.65;;;12.60;99.90;;;;;;5031690;28;20017;-37
2021/08/02 01:00:28;;;;;;;3.55;2.30;;;12.50;99.90;;;;;;5031532;28;20044;-37
2021/08/02 01:02:54;;;;;;;7.13;3.00;;;12.40;99.90;;;;;;5038369;28;20049;-37
2021/08/02 01:05:20;;;;;;;4.70;2.60;;;12.40;99.90;;;;;;5051438;28;20037;-37
2021/08/02 01:08:01;;;;;;;3.30;2.75;;;12.40;99.90;;;;;;5049423;28;20033;-37
2021/08/02 01:10:31;;;;;;;2.28;1.85;;;12.40;99.90;;;;;;5051409;28;20037;-37
2021/08/02 01:13:00;;;;;;;5.25;2.80;;;12.40;99.90;;;;;;5051770;28;20376;-37
2021/08/02 01:15:25;;;;;;;3.63;2.63;;;12.30;99.90;;;;;;5051288;28;20375;-37
2021/08/02 01:17:54;;;;;;;3.88;2.28;;;12.40;99.90;;;;;;5033256;28;20018;-37
2021/08/02 01:20:20;;;;;;;2.38;2.13;;;12.40;99.90;;;;;;5033122;28;20408;-36
2021/08/02 01:22:48;;;;;;;4.57;2.80;;;12.40;99.90;;;;;;5032075;28;20029;-37
2021/08/02 01:25:55;;;;;;;3.75;2.65;;;12.50;99.90;;;;;;5032977;28;20412;-37
2021/08/02 01:28:21;;;;;;;2.45;2.25;;;12.60;99.90;;;;;;5032914;28;20036;-38
2021/08/02 01:30:51;;;;;;;4.35;3.35;;;12.60;99.90;;;;;;5032831;28;20030;-37
2021/08/02 01:33:19;;;;;;;3.85;2.83;;;12.70;99.90;;;;;;5032895;28;20072;-38
2021/08/02 01:35:45;;;;;;;4.40;2.30;;;12.80;99.90;;;;;;5032855;28;20029;-37
2021/08/02 01:38:11;;;;;;;2.80;2.50;;;12.80;99.90;;;;;;5031824;28;20112;-37
2021/08/02 01:40:37;;;;;;;3.13;2.38;;;12.90;99.90;;;;;;5032701;28;20036;-37
2021/08/02 01:43:05;;;;;;;2.70;2.38;;;13.00;99.90;;;;;;5032777;28;20037;-37
2021/08/02 01:45:45;;;;;;;3.17;2.08;;;13.00;99.90;;;;;;5032737;28;20034;-36
2021/08/02 01:48:36;;;;;;;2.53;2.13;;;13.10;99.90;;;;;;5032704;28;20039;-37
2021/08/02 01:51:17;;;;;;;2.17;1.73;;;13.20;99.90;;;;;;5032566;28;20032;-37
2021/08/02 01:54:10;;;;;;;2.67;2.17;;;13.30;99.90;;;;;;5031653;28;20028;-37
2021/08/02 01:56:42;;;;;;;5.00;3.60;;;13.30;99.90;;;;;;5034064;28;20532;-37
2021/08/02 01:59:14;;;;;;;2.67;2.40;;;13.40;99.90;;;;;;5036511;28;20030;-37
2021/08/02 02:01:49;;;;;;;2.88;2.60;;;13.40;99.90;;;;;;5036546;28;20026;-37
2021/08/02 02:04:17;;;;;;;4.38;2.30;;;13.40;99.90;;;;;;5036350;28;20049;-36
2021/08/02 02:06:48;;;;;;;3.67;2.28;;;13.40;99.90;;;;;;5035621;28;20038;-37
2021/08/02 02:09:16;;;;;;;3.78;3.13;;;13.50;99.90;;;;;;5036382;28;20060;-37
2021/08/02 02:11:47;;;;;;;2.53;2.33;;;13.50;99.90;;;;;;5036457;28;20427;-37
2021/08/02 02:14:13;;;;;;;2.90;2.55;;;13.60;99.90;;;;;;5036308;28;20072;-37
2021/08/02 02:16:43;;;;;;;3.22;2.63;;;13.60;99.90;;;;;;5036419;28;20022;-36
2021/08/02 02:19:10;;;;;;;3.53;2.60;;;13.60;99.90;;;;;;5036336;28;20359;-37
2021/08/02 02:21:36;;;;;;;3.15;2.70;;;13.70;99.90;;;;;;5035398;28;20060;-37
2021/08/02 02:24:03;;;;;;;5.18;3.25;;;13.70;99.90;;;;;;5036188;28;20025;-37
2021/08/02 02:26:31;;;;;;;4.40;3.53;;;13.70;99.90;;;;;;5036160;28;20025;-37
2021/08/02 02:28:59;;;;;;;4.28;3.25;;;13.70;99.90;;;;;;5036094;28;20025;-37
2021/08/02 02:31:25;;;;;;;4.53;2.65;;;13.80;99.90;;;;;;5036071;28;20033;-37
2021/08/02 02:33:54;;;;;;;4.97;3.10;;;13.80;99.90;;;;;;5036012;28;20053;-38
2021/08/02 02:36:21;;;;;;;3.10;2.60;;;13.80;99.90;;;;;;5035703;28;20025;-36
2021/08/02 02:38:47;;;;;;;4.13;3.40;;;13.80;99.90;;;;;;5035656;28;20032;-36
2021/08/02 02:41:12;;;;;;;3.80;3.00;;;13.90;99.90;;;;;;5035852;28;20026;-37
2021/08/02 02:43:39;;;;;;;3.15;2.63;;;13.90;99.90;;;;;;5035920;28;20033;-37
2021/08/02 02:46:05;;;;;;;4.50;3.30;;;14.00;99.90;;;;;;5035794;28;20449;-37
2021/08/02 02:48:31;;;;;;;3.78;2.70;;;14.00;99.90;;;;;;5035866;28;20117;-37
2021/08/02 02:50:57;;;;;;;5.72;3.35;;;14.10;99.90;;;;;;5035731;28;20523;-37
2021/08/02 02:53:24;;;;;;;5.75;4.00;;;14.10;99.90;;;;;;5034785;28;20408;-36
2021/08/02 02:55:50;;;;;;;3.92;2.55;;;14.10;99.90;;;;;;5035633;28;20041;-36
2021/08/02 02:58:15;;;;;;;4.53;2.67;;;14.20;99.90;;;;;;5035625;28;20053;-37
2021/08/02 03:00:42;;;;;;;3.88;2.75;;;14.20;99.90;;;;;;5035506;28;20492;-38
2021/08/02 03:03:13;;;;;;;3.35;3.05;;;14.20;99.90;;;;;;5035410;28;20536;-36
2021/08/02 03:05:38;;;;;;;5.03;2.83;;;14.20;99.90;;;;;;5035627;28;20392;-36
2021/08/02 03:08:07;;;;;;;3.80;2.88;;;14.20;99.90;;;;;;5034400;28;20029;-36
2021/08/02 03:10:33;;;;;;;3.17;2.50;;;14.20;99.90;;;;;;5035413;28;20025;-37
2021/08/02 03:12:59;;;;;;;4.45;3.53;;;14.20;99.90;;;;;;5035363;28;20026;-37
2021/08/02 03:15:25;;;;;;;3.38;3.08;;;14.20;99.90;;;;;;5035281;28;20033;-37
2021/08/02 03:17:51;;;;;;;6.20;3.78;;;14.30;99.90;;;;;;5035299;28;20439;-37
2021/08/02 03:20:16;;;;;;;3.75;3.30;;;14.30;99.90;;;;;;5035154;28;20053;-37
2021/08/02 03:22:56;;;;;;;3.65;2.85;;;14.30;99.90;;;;;;5034148;28;20104;-38
2021/08/02 03:25:29;;;;;;;3.85;2.97;;;14.30;99.90;;;;;;5035121;28;20060;-36
2021/08/02 03:28:17;;;;;;;2.88;2.45;;;14.30;99.90;;;;;;5035040;28;20036;-37
2021/08/02 03:30:45;;;;;;;3.67;2.90;;;14.30;99.90;;;;;;5034925;28;20030;-37
2021/08/02 03:33:17;;;;;;;3.30;2.53;;;14.40;99.90;;;;;;5034701;28;20034;-37
2021/08/02 03:35:44;;;;;;;4.35;2.70;;;14.40;99.90;;;;;;5035007;28;20033;-37
2021/08/02 03:38:13;;;;;;;3.38;2.53;;;14.40;99.90;;;;;;5033883;28;20108;-37
2021/08/02 03:40:40;;;;;;;4.03;2.28;;;14.40;99.90;;;;;;5034772;28;20033;-37
2021/08/02 03:43:06;;;;;;;2.90;2.10;;;14.40;99.90;;;;;;5034730;28;20108;-37
2021/08/02 03:45:32;;;;;;;3.00;2.25;;;14.40;99.90;;;;;;5034748;28;20153;-37
2021/08/02 03:47:58;;;;;;;2.58;2.10;;;14.40;99.90;;;;;;5034599;28;20040;-37
2021/08/02 03:50:24;;;;;;;3.75;1.90;;;14.40;99.90;;;;;;5034554;28;20099;-36
2021/08/02 03:52:49;;;;;;;2.03;1.45;;;14.40;99.90;;;;;;5033666;28;20032;-37
2021/08/02 03:55:16;;;;;;;2.30;2.00;;;14.50;99.90;;;;;;5034507;28;20108;-37
2021/08/02 03:57:42;;;;;;;5.32;2.15;;;14.50;99.90;;;;;;5034498;28;20040;-37
2021/08/02 04:00:08;;;;;;;2.55;2.15;;;14.50;99.90;;;;;;5034437;28;20033;-37
2021/08/02 04:02:33;;;;;;;4.75;1.98;;;14.50;99.90;;;;;;5034184;28;20199;-37
2021/08/02 04:04:59;;;;;;;3.38;1.85;;;14.50;99.90;;;;;;5034466;28;20037;-37
2021/08/02 04:07:24;;;;;;;3.08;2.10;;;14.50;99.90;;;;;;5033319;28;20029;-37
2021/08/02 04:09:50;;;;;;;3.95;2.25;;;14.50;99.90;;;;;;5034234;28;20065;-37
2021/08/02 04:12:15;;;;;;;2.53;2.13;;;14.50;99.90;;;;;;5034163;28;20091;-37
2021/08/02 04:14:41;;;;;;;5.53;2.22;;;14.50;99.90;;;;;;5034183;28;20064;-38
2021/08/02 04:17:06;;;;;;;2.85;1.70;;;14.50;99.90;;;;;;5034113;28;20025;-37
2021/08/02 04:19:32;;;;;;;5.15;2.33;;;14.50;99.90;;;;;;5033604;28;20070;-37
2021/08/02 04:21:59;;;;;;;2.60;2.40;;;14.50;99.90;;;;;;5033129;28;20489;-37
2021/08/02 04:24:26;;;;;;;2.28;2.05;;;14.50;99.90;;;;;;5033998;28;20053;-37
2021/08/02 04:26:52;;;;;;;3.40;2.00;;;14.50;99.90;;;;;;5033981;28;20033;-37
2021/08/02 04:29:17;;;;;;;2.20;2.00;;;14.50;99.90;;;;;;5032708;28;20029;-37
2021/08/02 04:31:43;;;;;;;2.83;1.63;;;14.50;99.90;;;;;;5033723;28;20136;-37
2021/08/02 04:34:09;;;;;;;2.15;1.95;;;14.50;99.90;;;;;;5033815;28;20029;-37
2021/08/02 04:36:34;;;;;;;2.10;1.80;;;14.60;99.90;;;;;;5032705;28;20044;-37
2021/08/02 04:39:00;;;;;;;1.73;1.40;;;14.60;99.90;;;;;;5033766;28;20052;-38
2021/08/02 04:41:26;;;;;;;2.60;1.88;;;14.70;99.90;;;;;;5033635;28;20039;-38
2021/08/02 04:43:51;;;;;;;2.88;1.95;;;14.80;99.90;;;;;;5032423;28;20025;-38
2021/08/02 04:46:17;;;;;;;3.92;1.80;;;14.90;99.90;;;;;;5033475;28;20044;-37
2021/08/02 04:48:43;;;;;;;3.13;1.85;;;14.90;99.90;;;;;;5033552;28;20033;-37
2021/08/02 04:51:09;;;;;;;2.08;1.88;;;15.00;99.90;;;;;;5033470;28;20026;-36
2021/08/02 04:53:34;;;;;;;2.17;1.60;;;15.10;99.90;;;;;;5032491;28;20049;-37
2021/08/02 04:56:00;;;;;;;3.22;1.88;;;15.10;99.90;;;;;;5033499;28;20026;-37
2021/08/02 04:58:25;;;;;;;2.28;1.70;;;15.20;99.90;;;;;;5033315;28;20041;-38
2021/08/02 05:00:51;;;;;;;4.18;1.80;;;15.30;99.90;;;;;;5033263;28;20123;-37
2021/08/02 05:03:16;;;;;;;3.05;1.30;;;15.20;99.90;;;;;;5033096;28;20509;-37
2021/08/02 05:05:42;;;;;;;3.88;1.65;;;15.30;99.90;;;;;;5033332;28;20053;-37
2021/08/02 05:08:07;;;;;;;2.00;1.60;;;15.30;99.90;;;;;;5032354;28;20112;-37
2021/08/02 05:10:33;;;;;;;2.03;1.80;;;15.40;99.90;;;;;;5033085;28;20025;-37
2021/08/02 05:12:58;;;;;;;2.10;1.45;;;15.50;99.90;;;;;;5033199;28;20097;-37
2021/08/02 05:15:24;;;;;;;3.47;2.00;;;15.60;99.90;;;;;;5032973;28;20033;-37
2021/08/02 05:17:49;;;;;;;1.92;1.63;;;15.90;99.90;;;;;;5033062;28;20113;-37
2021/08/02 05:20:18;;;;;;;2.53;1.90;;;16.00;99.90;;;;;;5033011;28;20033;-37
2021/08/02 05:22:44;;;;;;;3.28;1.73;;;16.10;99.90;;;;;;5032093;28;20169;-37
2021/08/02 05:25:10;;;;;;;1.98;1.55;;;16.20;99.90;;;;;;5032976;28;20493;-37
2021/08/02 05:27:35;;;;;;;2.22;1.73;;;16.40;99.90;;;;;;5032829;28;20042;-38
2021/08/02 05:30:02;;;;;;;3.53;1.52;;;16.60;99.90;;;;;;5032488;28;20538;-38
2021/08/02 05:32:27;;;;;;;2.40;1.75;;;17.00;99.90;;;;;;5032249;28;20424;-38
2021/08/02 05:34:53;;;;;;;3.25;1.20;;;18.10;99.90;;;;;;5032911;28;20035;-37
2021/08/02 05:37:18;;;;;;;3.78;1.75;;;18.90;99.90;;;;;;5031972;28;20508;-37
2021/08/02 05:39:44;;;;;;;1.75;1.40;;;19.50;99.90;;;;;;5032877;28;20022;-37
2021/08/02 05:42:10;;;;;;;4.22;1.75;;;19.90;99.90;;;;;;5032874;28;20076;-37
2021/08/02 05:44:36;;;;;;;1.58;1.48;;;21.60;99.90;;;;;;5032735;28;20102;-38
2021/08/02 05:47:01;;;;;;;2.00;1.58;;;23.50;99.90;;;;;;5032769;28;20397;-38
2021/08/02 05:49:27;;;;;;;2.40;1.38;;;25.10;99.90;;;;;;5032740;28;20029;-38
2021/08/02 05:51:57;;;;;;;2.05;1.25;;;26.40;99.90;;;;;;5031763;28;20021;-37
2021/08/02 05:54:22;;;;;;;1.50;1.40;;;27.50;99.90;;;;;;5032693;28;20100;-38
2021/08/02 05:56:48;;;;;;;2.13;1.50;;;28.30;99.90;;;;;;5032709;28;20168;-38
2021/08/02 05:59:13;;;;;;;3.38;1.23;;;29.00;99.90;;;;;;5032540;28;20033;-39
2021/08/02 06:01:39;;;;;;;3.00;1.67;;;29.70;99.90;;;;;;5032605;28;20037;-38
2021/08/02 06:04:04;;;;;;;1.40;1.10;;;30.30;99.90;;;;;;5032483;28;20076;-38
2021/08/02 06:06:30;;;;;;;2.92;1.30;;;30.70;95.90;;;;;;5031687;28;20556;-38
2021/08/02 06:08:55;;;;;;;2.33;1.40;;;30.80;93.50;;;;;;5032589;28;20041;-38
2021/08/02 06:11:21;;;;;;;1.95;1.20;;;31.20;91.20;;;;;;5032475;28;20033;-38
2021/08/02 06:13:48;;;;;;;4.00;1.30;;;30.90;90.30;;;;;;5032487;28;20485;-38
2021/08/02 06:16:19;;;;;;;4.32;1.17;;;30.80;88.80;;;;;;5032557;28;20368;-38
2021/08/02 06:18:44;;;;;;;2.28;1.23;;;31.20;84.50;;;;;;5032581;28;20052;-38
2021/08/02 06:21:10;;;;;;;1.60;1.10;;;30.50;73.60;;;;;;5032485;28;20478;-37
2021/08/02 06:23:35;;;;;;;1.75;1.20;;;29.30;83.40;;;;;;5031523;28;20113;-38
2021/08/02 06:26:02;;;;;;;1.98;0.90;;;28.40;84.10;;;;;;5032744;28;20022;-37
2021/08/02 06:28:27;;;;;;;2.05;1.10;;;27.20;88.80;;;;;;5032205;28;20029;-38
2021/08/02 06:30:53;;;;;;;2.08;0.98;;;26.70;90.40;;;;;;5032316;28;20487;-38
2021/08/02 06:33:19;;;;;;;1.33;0.95;;;26.70;87.70;;;;;;5032356;28;20072;-37
2021/08/02 06:35:45;;;;;;;1.20;0.93;;;25.90;89.30;;;;;;5032412;28;20044;-38
2021/08/02 06:38:11;;;;;;;4.20;1.33;;;25.10;91.60;;;;;;5031317;28;20427;-38
2021/08/02 06:40:36;;;;;;;3.45;1.55;;;24.30;93.40;;;;;;5032223;28;20109;-38
2021/08/02 06:43:02;;;;;;;1.30;1.20;;;23.60;95.20;;;;;;5034042;28;20034;-37
2021/08/02 06:45:27;;;;;;;2.22;1.27;;;23.00;96.10;;;;;;5035846;28;20033;-37
2021/08/02 06:47:54;;;;;;;1.70;1.15;;;22.70;97.30;;;;;;5035798;28;20026;-37
2021/08/02 06:50:20;;;;;;;0.98;0.80;;;24.40;93.80;;;;;;5035702;28;20104;-38
2021/08/02 06:52:46;;;;;;;2.83;1.10;;;26.40;87.80;;;;;;5034871;28;20109;-38
2021/08/02 06:55:11;;;;;;;2.55;1.00;;;28.40;77.90;;;;;;5035651;28;20036;-38
2021/08/02 06:57:37;;;;;;;0.82;0.82;;;29.90;70.50;;;;;;5035523;28;20030;-38
2021/08/02 07:00:03;;;;;;;1.15;1.00;;;29.10;68.90;;;;;;5035595;28;20064;-38
2021/08/02 07:02:29;;;;;;;2.22;0.98;;;29.10;67.30;;;;;;5035433;28;20056;-38
2021/08/02 07:04:54;;;;;;;1.73;1.23;;;30.20;61.60;;;;;;5035547;28;20065;-38
2021/08/02 07:07:20;;;;;;;2.05;1.10;;;31.20;58.90;;;;;;5033297;28;20056;-38
2021/08/02 07:09:45;;;;;;;1.85;1.05;;;31.80;53.60;;;;;;5035363;28;20076;-38
2021/08/02 07:12:11;;;;;;;1.83;0.90;;;32.40;50.50;;;;;;5035340;28;20029;-38
2021/08/02 07:14:36;;;;;;;1.88;0.95;;;33.00;48.60;;;;;;5035329;28;20033;-39
2021/08/02 07:17:02;;;;;;;2.05;1.15;;;33.70;46.80;;;;;;5034034;28;20052;-38
2021/08/02 07:19:27;;;;;;;1.67;0.93;;;34.00;45.10;;;;;;5035158;28;20100;-39
2021/08/02 07:21:53;;;;;;;2.78;0.95;;;32.20;42.60;;;;;;5034303;28;20033;-38
2021/08/02 07:24:18;;;;;;;1.63;1.10;;;30.10;47.50;;;;;;5035206;28;20030;-38
2021/08/02 07:26:44;;;;;;;1.85;1.00;;;29.00;48.70;;;;;;5035065;28;20029;-38
2021/08/02 07:29:10;;;;;;;1.63;0.88;;;29.00;50.50;;;;;;5035015;28;20022;-38
2021/08/02 07:31:35;;;;;;;2.15;0.90;;;28.10;52.60;;;;;;5034975;28;20056;-38
2021/08/02 07:34:01;;;;;;;1.58;0.90;;;26.80;55.40;;;;;;5035017;28;20425;-38
2021/08/02 07:36:26;;;;;;;1.33;0.80;;;27.20;55.50;;;;;;5034074;28;20112;-38
2021/08/02 07:38:52;;;;;;;1.67;0.98;;;28.90;51.60;;;;;;5034901;28;20083;-38
2021/08/02 07:41:18;;;;;;;1.27;0.90;;;30.60;47.20;;;;;;5034940;28;20350;-38
2021/08/02 07:43:44;;;;;;;1.90;0.90;;;32.00;43.20;;;;;;5034700;28;20492;-38
2021/08/02 07:46:11;;;;;;;2.60;0.85;;;33.40;40.20;;;;;;5034868;28;20039;-38
2021/08/02 07:48:36;;;;;;;1.42;1.02;;;33.80;38.80;;;;;;5034665;28;20420;-38
2021/08/02 07:51:02;;;;;;;1.38;0.77;;;32.80;39.20;;;;;;5034648;28;20033;-38
2021/08/02 07:53:27;;;;;;;2.40;0.77;;;31.40;41.00;;;;;;5033333;28;20053;-38
2021/08/02 07:55:53;;;;;;;3.05;0.70;;;30.60;41.00;;;;;;5034200;28;20030;-38
2021/08/02 07:58:18;;;;;;;1.55;0.80;;;31.40;39.00;;;;;;5034325;28;20052;-38
2021/08/02 08:00:44;;;;;;;1.50;0.73;;;32.50;36.50;;;;;;5034415;28;20037;-38
2021/08/02 08:03:12;;;;;;;1.17;0.75;;;33.50;34.40;;;;;;5034217;28;20085;-38
2021/08/02 08:05:37;;;;;;;2.65;0.90;;;34.40;33.00;;;;;;5034319;28;20512;-39
2021/08/02 08:08:03;;;;;;;0.63;0.60;;;35.00;31.40;;;;;;5033430;28;20065;-38
2021/08/02 08:10:29;;;;;;;0.70;0.60;;;34.90;30.20;;;;;;5034253;28;20048;-38
2021/08/02 08:12:55;;;;;;;2.13;0.70;;;33.40;31.50;;;;;;5034095;28;20034;-38
2021/08/02 08:15:23;;;;;;;1.00;0.68;;;31.80;32.50;;;;;;5034213;28;20033;-38
2021/08/02 08:17:49;;;;;;;1.50;0.80;;;30.30;32.90;;;;;;5034068;28;20025;-38
2021/08/02 08:20:18;;;;;;;1.58;0.90;;;30.20;34.30;;;;;;5048368;28;20032;-39
2021/08/02 08:22:44;;;;;;;1.95;0.50;;;29.20;35.10;;;;;;5052418;28;20029;-38
2021/08/02 08:25:11;;;;;;;3.35;0.70;;;28.00;37.20;;;;;;5053532;28;20493;-38
2021/08/02 08:27:37;;;;;;;1.23;0.60;;;27.00;39.50;;;;;;5053106;28;20036;-38
2021/08/02 08:30:04;;;;;;;3.40;1.00;;;26.10;40.90;;;;;;5053526;28;20024;-38
2021/08/02 08:32:29;;;;;;;0.73;0.70;;;25.30;42.00;;;;;;5053584;28;20503;-38
2021/08/02 08:34:55;;;;;;;4.00;1.00;;;25.90;41.30;;;;;;5053297;28;20029;-38
2021/08/02 08:37:20;;;;;;;2.63;1.05;;;27.80;38.20;;;;;;5052679;28;20032;-38
2021/08/02 08:39:46;;;;;;;1.48;0.80;;;29.40;35.60;;;;;;5053349;28;20429;-38
2021/08/02 08:42:13;;;;;;;2.60;0.90;;;30.70;33.60;;;;;;5053345;28;20033;-38
2021/08/02 08:44:39;;;;;;;1.33;0.80;;;31.90;31.50;;;;;;5053143;28;20025;-38
2021/08/02 08:47:04;;;;;;;4.65;0.98;;;33.00;30.10;;;;;;5053252;28;20417;-38
2021/08/02 08:49:30;;;;;;;0.95;0.73;;;34.00;29.40;;;;;;5053208;28;20035;-38
2021/08/02 08:51:56;;;;;;;1.55;0.80;;;33.30;28.30;;;;;;5050903;28;20029;-38
2021/08/02 08:54:22;;;;;;;1.15;0.50;;;32.40;29.00;;;;;;5053385;28;20102;-43
2021/08/02 08:56:47;;;;;;;0.90;0.60;;;31.50;29.70;;;;;;5053278;28;20079;-39
2021/08/02 08:59:13;;;;;;;1.63;0.85;;;32.30;29.50;;;;;;5053294;28;20028;-38
2021/08/02 09:01:40;;;;;;;1.35;0.70;;;32.60;29.20;;;;;;5051866;28;20025;-38
2021/08/02 09:04:06;;;;;;;1.77;0.90;;;32.00;29.30;;;;;;5053074;28;20044;-38
2021/08/02 09:07:05;;;;;;;2.15;0.98;;;30.60;30.00;;;;;;5052222;28;20642;-38
2021/08/02 09:09:34;;;;;;;1.73;0.70;;;29.90;30.40;;;;;;5051949;28;20444;-40
2021/08/02 09:12:18;;;;;;;1.08;0.70;;;28.70;31.70;;;;;;5053024;28;20473;-38
2021/08/02 09:14:51;;;;;;;1.77;0.88;;;27.50;33.20;;;;;;5052981;28;20108;-38
2021/08/02 09:17:34;;;;;;;1.52;0.80;;;27.80;33.70;;;;;;5053010;28;20021;-38
2021/08/02 09:20:18;;;;;;;1.52;0.77;;;28.40;32.60;;;;;;5052960;28;20071;-38
2021/08/02 09:22:43;;;;;;;1.27;0.70;;;28.40;31.30;;;;;;5052037;28;20025;-38
2021/08/02 09:25:15;;;;;;;1.90;0.88;;;28.80;31.40;;;;;;5052958;28;20032;-38
2021/08/02 09:27:41;;;;;;;0.95;0.50;;;29.70;29.30;;;;;;5050421;28;20060;-39
2021/08/02 09:30:17;;;;;;;1.65;1.10;;;30.60;28.80;;;;;;5050299;28;20033;-39
2021/08/02 09:32:48;;;;;;;1.48;0.85;;;31.50;27.30;;;;;;5044249;28;20021;-39
2021/08/02 09:35:24;;;;;;;0.95;0.73;;;32.30;27.30;;;;;;5031358;28;20021;-38
2021/08/02 09:37:59;;;;;;;5.20;1.10;;;33.20;26.90;;;;;;5030358;28;20384;-39
2021/08/02 09:40:24;;;;;;;2.00;0.90;;;33.70;25.30;;;;;;5030008;28;20056;-38
2021/08/02 09:42:57;;;;;;;1.58;0.85;;;34.00;25.40;;;;;;5047511;28;20059;-39
2021/08/02 09:45:24;;;;;;;2.72;1.02;;;33.80;24.80;;;;;;5050998;28;20029;-42
2021/08/02 09:47:51;;;;;;;1.48;0.70;;;32.70;25.40;;;;;;5051078;28;20036;-41
2021/08/02 09:50:30;;;;;;;1.65;0.90;;;31.80;26.00;;;;;;5047748;28;20040;-38
2021/08/02 09:52:57;;;;;;;1.30;0.80;;;31.30;26.30;;;;;;5049332;28;20071;-40
2021/08/02 09:55:22;;;;;;;1.73;1.00;;;32.20;26.40;;;;;;5050937;28;20484;-37
2021/08/02 09:57:54;;;;;;;2.55;1.10;;;32.70;25.60;;;;;;5050964;28;20049;-37
2021/08/02 10:00:21;;;;;;;2.85;0.90;;;32.70;25.10;;;;;;5050176;28;20040;-38
2021/08/02 10:02:49;;;;;;;2.58;1.00;;;32.70;25.20;;;;;;5050739;28;20065;-38
2021/08/02 10:05:20;;;;;;;1.60;0.70;;;32.10;24.90;;;;;;5050992;28;20029;-38
2021/08/02 10:07:46;;;;;;;0.80;0.70;;;30.90;25.70;;;;;;5049664;28;20377;-37
2021/08/02 10:10:13;;;;;;;3.95;0.73;;;29.80;26.80;;;;;;5050738;28;20029;-37
2021/08/02 10:12:47;;;;;;;2.30;0.90;;;28.70;27.80;;;;;;5050182;28;20048;-38
2021/08/02 10:15:17;;;;;;;1.52;0.80;;;28.10;28.80;;;;;;5050887;28;20495;-38
2021/08/02 10:17:50;;;;;;;3.80;1.00;;;27.50;29.80;;;;;;5052245;28;20048;-38
2021/08/02 10:20:17;;;;;;;2.00;1.02;;;27.00;30.40;;;;;;5054623;28;20068;-38
2021/08/02 10:22:44;;;;;;;1.50;0.70;;;26.70;31.10;;;;;;5053757;28;20435;-41
2021/08/02 10:25:10;;;;;;;6.35;1.15;;;26.40;31.50;;;;;;5054489;28;20040;-40
2021/08/02 10:27:35;;;;;;;1.02;0.70;;;26.30;32.10;;;;;;5054606;28;20104;-39
2021/08/02 10:30:01;;;;;;;1.38;1.05;;;26.00;32.60;;;;;;5054138;28;20486;-38
2021/08/02 10:32:27;;;;;;;1.48;0.98;;;25.80;33.20;;;;;;5054099;28;20025;-38
2021/08/02 10:34:55;;;;;;;2.33;0.98;;;25.80;33.80;;;;;;5051613;28;20064;-37
2021/08/02 10:37:35;;;;;;;1.23;0.77;;;25.80;34.40;;;;;;5053415;28;20064;-37
2021/08/02 10:40:09;;;;;;;1.73;0.75;;;25.70;36.40;;;;;;5054202;28;20032;-38
2021/08/02 10:42:48;;;;;;;1.02;0.80;;;25.50;35.90;;;;;;5054284;28;20048;-37
2021/08/02 10:45:14;;;;;;;1.67;0.90;;;25.40;35.20;;;;;;5053990;28;20068;-38
2021/08/02 10:47:42;;;;;;;1.70;1.02;;;25.50;35.30;;;;;;5054403;28;20064;-37
2021/08/02 10:50:09;;;;;;;2.95;0.70;;;25.50;35.60;;;;;;5054053;28;20040;-38
2021/08/02 10:52:35;;;;;;;1.17;0.90;;;25.50;35.80;;;;;;5053305;28;20036;-38
2021/08/02 10:55:11;;;;;;;1.70;0.90;;;25.50;35.80;;;;;;5054159;28;20480;-38
2021/08/02 10:57:36;;;;;;;1.00;0.90;;;25.40;36.30;;;;;;5053959;28;20021;-37
2021/08/02 11:00:05;;;;;;;4.30;1.30;;;25.00;37.30;;;;;;5053987;28;20499;-37
2021/08/02 11:02:31;;;;;;;2.88;0.70;;;24.80;38.00;;;;;;5053883;28;20017;-37
2021/08/02 11:04:56;;;;;;;1.77;1.08;;;24.70;38.50;;;;;;5053931;28;20024;-37
2021/08/02 11:07:22;;;;;;;2.33;0.70;;;24.80;38.40;;;;;;5053047;28;20033;-37
2021/08/02 11:09:48;;;;;;;2.10;0.88;;;24.80;38.50;;;;;;5054106;28;20413;-37
2021/08/02 11:12:14;;;;;;;3.53;0.75;;;25.00;38.30;;;;;;5053578;28;20032;-37
2021/08/02 11:14:53;;;;;;;1.95;0.95;;;25.20;38.00;;;;;;5053852;28;20025;-40
2021/08/02 11:17:24;;;;;;;1.00;0.70;;;25.30;37.60;;;;;;5053807;28;20031;-37
2021/08/02 11:20:02;;;;;;;4.40;1.00;;;25.30;37.50;;;;;;5053649;28;20488;-38
2021/08/02 11:22:28;;;;;;;2.33;1.10;;;25.40;37.60;;;;;;5052679;28;20036;-37
2021/08/02 11:24:55;;;;;;;2.10;0.70;;;25.40;37.00;;;;;;5053459;28;20063;-37
2021/08/02 11:27:21;;;;;;;0.90;0.70;;;25.20;37.20;;;;;;5053483;28;20037;-37
2021/08/02 11:29:49;;;;;;;2.05;0.77;;;24.80;37.40;;;;;;5051271;28;20383;-38
2021/08/02 11:32:15;;;;;;;2.13;0.82;;;24.30;37.70;;;;;;5052274;28;20091;-37
2021/08/02 11:34:49;;;;;;;5.07;0.70;;;23.90;38.60;;;;;;5049675;28;20029;-37
2021/08/02 11:37:19;;;;;;;3.10;0.80;;;23.50;39.70;;;;;;5046463;28;20083;-37
2021/08/02 11:39:59;;;;;;;2.22;0.88;;;23.10;40.50;;;;;;5052362;28;20411;-38
2021/08/02 11:42:28;;;;;;;1.02;0.52;;;22.70;41.60;;;;;;5041052;28;20080;-38
2021/08/02 11:44:56;;;;;;;1.83;0.90;;;22.50;42.20;;;;;;5043603;28;20035;-38
2021/08/02 11:47:24;;;;;;;2.42;0.63;;;22.50;42.70;;;;;;5052875;28;20057;-37
2021/08/02 11:49:55;;;;;;;4.15;1.13;;;22.60;43.30;;;;;;5052695;28;20053;-37
2021/08/02 11:52:23;;;;;;;1.75;0.85;;;23.00;44.70;;;;;;5051962;28;20032;-37
2021/08/02 11:54:59;;;;;;;1.58;0.90;;;23.40;42.00;;;;;;5039707;28;20439;-37
2021/08/02 11:57:25;;;;;;;;;;;23.70;42.90;;;;;;5049269;28;20036;-37
2021/08/02 11:59:56;;;;;;;2.97;1.00;;;23.90;41.40;;;;;;5043609;28;20030;-38
2021/08/02 12:02:39;;;;;;;2.28;1.00;;;24.00;40.90;;;;;;5037130;28;20014;-37
2021/08/02 12:05:18;;;;;;;2.30;0.90;;;23.90;42.40;;;;;;5036202;28;20052;-38
2021/08/02 12:07:45;;;;;;;1.73;1.08;;;23.60;41.90;;;;;;5043732;28;20032;-37
2021/08/02 12:10:12;;;;;;;2.55;0.70;;;23.50;42.20;;;;;;5046152;28;20029;-37
2021/08/02 12:12:38;;;;;;;2.90;0.90;;;23.40;42.50;;;;;;5052036;28;20047;-37
2021/08/02 12:15:06;;;;;;;2.85;1.05;;;23.40;42.70;;;;;;5052101;28;20021;-37
2021/08/02 12:17:33;;;;;;;1.58;0.93;;;23.20;41.70;;;;;;5052459;28;20025;-37
2021/08/02 12:19:58;;;;;;;1.67;0.90;;;23.00;41.10;;;;;;5034745;28;20052;-37
2021/08/02 12:22:36;;;;;;;3.42;1.27;;;22.90;40.90;;;;;;5030099;28;20473;-38
2021/08/02 12:25:01;;;;;;;1.05;0.95;;;22.90;40.50;;;;;;5030884;28;20504;-38
2021/08/02 12:27:27;;;;;;;1.95;0.90;;;22.90;40.10;;;;;;5030856;28;20103;-37
2021/08/02 12:30:03;;;;;;;2.72;1.30;;;23.00;39.60;;;;;;5030830;28;20030;-38
2021/08/02 12:32:35;;;;;;;;;;;22.90;39.00;;;;;;5031174;28;20033;-37
2021/08/02 12:35:01;;;;;;;1.52;1.13;;;23.00;38.80;;;;;;5030564;28;20303;-37
2021/08/02 12:37:27;;;;;;;1.45;1.00;;;23.20;38.20;;;;;;5029760;28;20022;-37
2021/08/02 12:39:54;;;;;;;2.08;1.10;;;23.40;38.60;;;;;;5030151;28;20048;-37
2021/08/02 12:42:24;;;;;;;1.77;0.85;;;23.50;38.60;;;;;;5030257;28;20033;-37
2021/08/02 12:44:49;;;;;;;2.75;1.02;;;23.60;38.30;;;;;;5030462;28;20024;-37
2021/08/02 12:47:15;;;;;;;1.63;1.00;;;23.70;38.00;;;;;;5031651;28;20037;-37
2021/08/02 12:49:40;;;;;;;2.10;1.00;;;23.80;37.60;;;;;;5031527;28;20484;-37
2021/08/02 12:52:06;;;;;;;1.85;1.00;;;23.90;37.20;;;;;;5030363;28;20116;-37